createdAt,value
2022-08-26T00:01:53.046Z,99641.56
2022-08-26T00:04:22.111Z,99638.84
2022-08-26T00:06:50.179Z,99636.13
2022-08-26T00:09:18.127Z,99630.69
2022-08-26T00:11:47.274Z,99627.16
2022-08-26T00:14:16.396Z,99623.63
2022-08-26T00:16:47.814Z,99630.69
2022-08-26T00:19:17.201Z,99629.03
2022-08-26T00:21:45.343Z,99624.69
2022-08-26T00:24:13.396Z,99627.41
2022-08-26T00:26:41.616Z,99624.69
2022-08-26T00:29:10.938Z,99622.00
2022-08-26T00:31:39.048Z,99610.31
2022-08-26T00:34:11.248Z,99603.25
2022-08-26T00:36:40.891Z,99607.84
2022-08-26T00:39:09.392Z,99614.94
2022-08-26T00:41:37.971Z,99614.09
2022-08-26T00:44:05.977Z,99612.47
2022-08-26T00:46:36.024Z,99614.94
2022-08-26T00:49:12.330Z,99605.13
2022-08-26T00:51:45.132Z,99606.81
2022-08-26T00:54:13.379Z,99609.50
2022-08-26T00:56:43.531Z,99608.66
2022-08-26T00:59:12.794Z,99606.81
2022-08-26T01:01:41.483Z,99607.84
2022-08-26T01:04:10.155Z,99616.00
2022-08-26T01:06:38.334Z,99615.75
2022-08-26T01:09:07.779Z,99610.31
2022-08-26T01:11:36.652Z,99613.84
2022-08-26T01:14:04.729Z,99604.09
2022-08-26T01:16:34.273Z,99606.81
2022-08-26T01:19:04.263Z,99607.84
2022-08-26T01:21:35.125Z,99607.84
2022-08-26T01:24:10.305Z,99604.31
2022-08-26T01:26:41.337Z,99606.22
2022-08-26T01:29:12.781Z,99600.81
2022-08-26T01:31:42.463Z,99604.56
2022-08-26T01:34:13.736Z,99608.38
2022-08-26T01:36:41.962Z,99607.28
2022-08-26T01:39:11.744Z,99600.22
2022-08-26T01:41:40.664Z,99595.88
2022-08-26T01:44:15.783Z,99604.56
2022-08-26T01:46:43.969Z,99591.28
2022-08-26T01:49:14.307Z,99592.09
2022-08-26T01:51:44.534Z,99594.81
2022-08-26T01:54:14.066Z,99598.34
2022-08-26T01:56:42.327Z,99594.81
2022-08-26T01:59:12.258Z,99597.53
2022-08-26T02:01:40.535Z,99589.13
2022-08-26T02:04:11.944Z,99592.91
2022-08-26T02:06:40.002Z,99597.53
2022-08-26T02:09:08.039Z,99595.63
2022-08-26T02:11:38.299Z,99598.34
2022-08-26T02:14:16.850Z,99603.75
2022-08-26T02:16:46.790Z,99601.31
2022-08-26T02:19:17.288Z,99595.88
2022-08-26T02:21:45.975Z,99600.22
2022-08-26T02:24:21.095Z,99597.75
2022-08-26T02:26:50.514Z,99598.59
2022-08-26T02:29:21.362Z,99596.94
2022-08-26T02:31:49.611Z,99605.09
2022-08-26T02:34:20.588Z,99595.31
2022-08-26T02:36:49.419Z,99592.59
2022-08-26T02:39:22.118Z,99588.25
2022-08-26T02:41:51.918Z,99585.53
2022-08-26T02:44:20.005Z,99586.63
2022-08-26T02:46:48.350Z,99584.72
2022-08-26T02:49:17.384Z,99584.72
2022-08-26T02:51:45.403Z,99590.13
2022-08-26T02:54:13.657Z,99590.94
2022-08-26T02:56:41.675Z,99590.94
2022-08-26T02:59:12.321Z,99592.59
2022-08-26T03:01:40.566Z,99582.81
2022-08-26T03:04:10.246Z,99588.25
2022-08-26T03:06:38.371Z,99587.19
2022-08-26T03:09:07.076Z,99591.78
2022-08-26T03:11:36.692Z,99591.78
2022-08-26T03:14:04.998Z,99592.59
2022-08-26T03:16:35.656Z,99596.38
2022-08-26T03:19:04.401Z,99583.09
2022-08-26T03:21:32.437Z,99590.94
2022-08-26T03:24:00.605Z,99589.31
2022-08-26T03:26:28.742Z,99591.22
2022-08-26T03:29:15.260Z,99593.13
2022-08-26T03:31:47.084Z,99602.31
2022-08-26T03:34:15.296Z,99598.53
2022-08-26T03:36:43.373Z,99602.31
2022-08-26T03:39:11.436Z,99607.75
2022-08-26T03:41:39.725Z,99603.41
2022-08-26T03:44:08.822Z,99606.13
2022-08-26T03:46:37.503Z,99606.13
2022-08-26T03:49:07.999Z,99606.13
2022-08-26T03:51:38.708Z,99599.59
2022-08-26T03:54:08.334Z,99596.06
2022-08-26T03:56:36.708Z,99599.88
2022-08-26T03:59:04.899Z,99595.25
2022-08-26T04:01:35.617Z,99603.41
2022-08-26T04:04:04.099Z,99600.69
2022-08-26T04:06:37.940Z,99596.06
2022-08-26T04:09:07.244Z,99596.88
2022-08-26T04:11:38.397Z,99591.47
2022-08-26T04:14:08.673Z,99596.88
2022-08-26T04:16:36.814Z,99601.50
2022-08-26T04:19:04.930Z,99602.31
2022-08-26T04:21:33.015Z,99610.44
2022-08-26T04:24:03.434Z,99606.13
2022-08-26T04:26:36.960Z,99606.13
2022-08-26T04:29:09.166Z,99606.13
2022-08-26T04:31:37.374Z,99603.41
2022-08-26T04:34:06.580Z,99606.13
2022-08-26T04:36:34.574Z,99613.16
2022-08-26T04:39:05.342Z,99620.25
2022-08-26T04:41:33.384Z,99614.00
2022-08-26T04:44:02.419Z,99613.72
2022-08-26T04:46:31.009Z,99616.22
2022-08-26T04:48:59.129Z,99617.25
2022-08-26T04:51:28.556Z,99615.13
2022-08-26T04:53:57.389Z,99608.88
2022-08-26T04:56:27.320Z,99607.78
2022-08-26T04:58:56.581Z,99615.13
2022-08-26T05:01:24.715Z,99603.47
2022-08-26T05:03:52.834Z,99605.91
2022-08-26T05:06:21.030Z,99600.47
2022-08-26T05:08:50.191Z,99605.91
2022-08-26T05:11:18.197Z,99604.03
2022-08-26T05:13:48.024Z,99595.88
2022-08-26T05:16:16.573Z,99596.94
2022-08-26T05:18:45.750Z,99601.31
2022-08-26T05:21:18.777Z,99593.41
2022-08-26T05:23:46.955Z,99592.59
2022-08-26T05:26:17.485Z,99592.59
2022-08-26T05:28:54.651Z,99588.00
2022-08-26T05:31:24.241Z,99590.13
2022-08-26T05:33:52.343Z,99590.94
2022-08-26T05:36:21.643Z,99590.13
2022-08-26T05:38:49.655Z,99591.78
2022-08-26T05:41:19.095Z,99588.25
2022-08-26T05:43:47.184Z,99590.94
2022-08-26T05:46:18.315Z,99589.31
2022-08-26T05:48:46.981Z,99589.31
2022-08-26T05:51:15.417Z,99590.94
2022-08-26T05:53:54.493Z,99602.66
2022-08-26T05:56:24.920Z,99598.84
2022-08-26T05:58:53.160Z,99606.97
2022-08-26T06:01:24.128Z,99598.59
2022-08-26T06:03:52.938Z,99597.53
2022-08-26T06:06:27.456Z,99596.72
2022-08-26T06:08:55.995Z,99601.84
2022-08-26T06:11:25.512Z,99602.13
2022-08-26T06:13:53.679Z,99593.72
2022-08-26T06:16:24.614Z,99598.09
2022-08-26T06:18:53.516Z,99598.09
2022-08-26T06:21:22.946Z,99603.50
2022-08-26T06:24:09.083Z,99603.50
2022-08-26T06:26:37.670Z,99598.09
2022-08-26T06:29:06.100Z,99600.81
2022-08-26T06:31:36.304Z,99601.63
2022-08-26T06:34:09.884Z,99601.63
2022-08-26T06:36:39.497Z,99598.91
2022-08-26T06:39:09.487Z,99600.53
2022-08-26T06:41:41.439Z,99601.63
2022-08-26T06:44:11.775Z,99598.66
2022-08-26T06:46:41.144Z,99599.72
2022-08-26T06:49:09.260Z,99598.66
2022-08-26T06:51:39.243Z,99604.91
2022-08-26T06:54:07.719Z,99601.91
2022-08-26T06:56:37.060Z,99599.78
2022-08-26T06:59:05.130Z,99603.56
2022-08-26T07:01:36.797Z,99602.25
2022-08-26T07:04:10.667Z,99602.25
2022-08-26T07:06:40.021Z,99611.19
2022-08-26T07:09:09.871Z,99604.69
2022-08-26T07:11:38.339Z,99612.59
2022-08-26T07:14:06.651Z,99607.97
2022-08-26T07:16:35.834Z,99601.72
2022-08-26T07:19:10.971Z,99610.69
2022-08-26T07:21:41.623Z,99615.88
2022-08-26T07:24:11.054Z,99618.81
2022-08-26T07:26:43.069Z,99604.16
2022-08-26T07:29:11.618Z,99608.53
2022-08-26T07:31:42.754Z,99610.44
2022-08-26T07:34:11.199Z,99605.81
2022-08-26T07:36:40.625Z,99594.97
2022-08-26T07:39:09.010Z,99597.69
2022-08-26T07:41:37.751Z,99610.16
2022-08-26T07:44:07.358Z,99598.25
2022-08-26T07:46:36.604Z,99595.28
2022-08-26T07:49:04.667Z,99598.81
2022-08-26T07:51:33.267Z,99598.56
2022-08-26T07:54:02.603Z,99597.75
2022-08-26T07:56:30.780Z,99595.59
2022-08-26T07:58:59.385Z,99597.22
2022-08-26T08:01:29.055Z,99592.59
2022-08-26T08:03:58.985Z,99595.09
2022-08-26T08:06:28.108Z,99600.22
2022-08-26T08:08:56.391Z,99590.19
2022-08-26T08:11:27.399Z,99601.88
2022-08-26T08:13:56.408Z,99597.28
2022-08-26T08:16:32.260Z,99600.00
2022-08-26T08:19:01.368Z,99595.63
2022-08-26T08:21:31.811Z,99588.31
2022-08-26T08:24:00.905Z,99596.19
2022-08-26T08:26:30.304Z,99591.84
2022-08-26T08:28:58.500Z,99585.34
2022-08-26T08:31:57.073Z,99581.56
2022-08-26T08:34:16.366Z,99577.75
2022-08-26T08:36:46.829Z,99585.09
2022-08-26T08:39:14.889Z,99588.63
2022-08-26T08:41:50.043Z,99584.00
2022-08-26T08:44:20.345Z,99580.22
2022-08-26T08:46:49.178Z,99584.56
2022-08-26T08:49:17.610Z,99582.66
2022-08-26T08:51:48.125Z,99581.63
2022-08-26T08:54:16.098Z,99593.00
2022-08-26T08:56:48.202Z,99590.06
2022-08-26T08:59:19.634Z,99594.66
2022-08-26T09:01:56.774Z,99578.38
2022-08-26T09:04:45.097Z,99583.53
2022-08-26T09:07:14.789Z,99584.38
2022-08-26T09:09:46.057Z,99572.47
2022-08-26T09:12:16.872Z,99569.75
2022-08-26T09:14:47.926Z,99566.22
2022-08-26T09:17:23.228Z,99571.66
2022-08-26T09:19:52.760Z,99567.84
2022-08-26T09:22:30.449Z,99568.66
2022-08-26T09:24:58.489Z,99566.22
2022-08-26T09:27:45.272Z,99560.50
2022-08-26T09:30:15.347Z,99562.41
2022-08-26T09:32:44.584Z,99553.19
2022-08-26T09:35:26.049Z,99551.31
2022-08-26T09:37:54.138Z,99561.09
2022-08-26T09:40:27.025Z,99548.31
2022-08-26T09:43:11.753Z,99552.69
2022-08-26T09:45:40.671Z,99554.56
2022-08-26T09:48:29.489Z,99540.75
2022-08-26T09:50:58.893Z,99538.84
2022-08-26T09:53:30.501Z,99541.31
2022-08-26T09:56:17.656Z,99538.31
2022-08-26T09:58:47.903Z,99539.41
2022-08-26T10:01:17.613Z,99538.31
2022-08-26T10:03:47.537Z,99545.41
2022-08-26T10:06:22.860Z,99533.47
2022-08-26T10:08:52.017Z,99529.94
2022-08-26T10:11:25.573Z,99530.75
2022-08-26T10:13:57.255Z,99526.97
2022-08-26T10:16:28.597Z,99529.69
2022-08-26T10:19:06.383Z,99513.13
2022-08-26T10:21:37.245Z,99509.84
2022-08-26T10:24:05.906Z,99511.22
2022-08-26T10:26:36.509Z,99513.94
2022-08-26T10:29:11.236Z,99514.75
2022-08-26T10:31:41.048Z,99515.59
2022-08-26T10:34:09.796Z,99515.59
2022-08-26T10:37:14.111Z,99509.06
2022-08-26T10:39:42.759Z,99509.06
2022-08-26T10:42:14.736Z,99500.91
2022-08-26T10:44:44.319Z,99503.63
2022-08-26T10:47:20.131Z,99506.34
2022-08-26T10:49:48.834Z,99491.69
2022-08-26T10:52:19.558Z,99499.84
2022-08-26T10:54:48.704Z,99487.09
2022-08-26T10:57:18.584Z,99498.78
2022-08-26T10:59:54.109Z,99494.97
2022-08-26T11:02:25.279Z,99484.09
2022-08-26T11:04:56.209Z,99483.28
2022-08-26T11:07:41.384Z,99488.47
2022-08-26T11:10:28.097Z,99477.63
2022-08-26T11:12:57.976Z,99474.91
2022-08-26T11:16:10.847Z,99479.25
2022-08-26T11:18:51.267Z,99481.94
2022-08-26T11:21:52.798Z,99477.34
2022-08-26T11:24:43.583Z,99472.72
2022-08-26T11:27:13.321Z,99477.09
2022-08-26T11:30:03.189Z,99479.53
2022-08-26T11:32:52.244Z,99476.00
2022-08-26T11:35:50.148Z,99471.38
2022-08-26T11:38:23.639Z,99476.56
2022-08-26T11:41:08.466Z,99471.13
2022-08-26T11:43:36.287Z,99463.78
2022-08-26T11:46:06.116Z,99467.31
2022-08-26T11:48:36.677Z,99464.59
2022-08-26T11:51:06.999Z,99469.78
2022-08-26T11:53:37.738Z,99462.44
2022-08-26T11:56:07.600Z,99456.22
2022-08-26T11:58:35.682Z,99444.53
2022-08-26T12:01:05.461Z,99447.78
2022-08-26T12:03:40.799Z,99436.09
2022-08-26T12:06:14.712Z,99438.56
2022-08-26T12:08:44.003Z,99435.84
2022-08-26T12:11:13.534Z,99433.16
2022-08-26T12:13:42.228Z,99421.19
2022-08-26T12:16:10.884Z,99425.81
2022-08-26T12:18:39.669Z,99425.56
2022-08-26T12:21:17.362Z,99413.03
2022-08-26T12:23:46.948Z,99413.03
2022-08-26T12:26:22.543Z,99410.88
2022-08-26T12:28:54.150Z,99407.63
2022-08-26T12:31:24.967Z,99399.47
2022-08-26T12:33:53.239Z,99400.28
2022-08-26T12:36:27.484Z,99392.97
2022-08-26T12:38:58.473Z,99388.59
2022-08-26T12:41:48.124Z,99383.72
2022-08-26T12:44:39.757Z,99389.16
2022-08-26T12:47:09.418Z,99389.97
2022-08-26T12:49:37.860Z,99389.97
2022-08-26T12:52:07.741Z,99385.34
2022-08-26T12:55:01.707Z,99381.56
2022-08-26T12:57:31.660Z,99377.75
2022-08-26T13:00:28.382Z,99382.13
2022-08-26T13:02:56.635Z,99382.13
2022-08-26T13:05:25.587Z,99374.78
2022-08-26T13:08:15.265Z,99378.56
2022-08-26T13:10:44.378Z,99364.19
2022-08-26T13:13:12.445Z,99368.81
2022-08-26T13:15:40.411Z,99368.56
2022-08-26T13:18:08.535Z,99374.78
2022-08-26T13:20:36.669Z,99368.56
2022-08-26T13:23:04.684Z,99368.56
2022-08-26T13:25:34.092Z,99361.22
2022-08-26T13:28:02.068Z,99363.13
2022-08-26T13:30:30.151Z,99359.31
2022-08-26T13:32:59.749Z,99367.47
2022-08-26T13:35:30.186Z,99353.88
2022-08-26T13:37:58.930Z,99347.34
2022-08-26T13:40:29.269Z,99349.25
2022-08-26T13:43:00.832Z,99353.06
2022-08-26T13:45:28.870Z,99344.66
2022-08-26T13:47:58.519Z,99349.25
2022-08-26T13:50:26.524Z,99343.84
2022-08-26T13:52:54.551Z,99347.34
2022-08-26T13:55:22.556Z,99346.28
2022-08-26T13:57:50.569Z,99352.53
2022-08-26T14:00:20.759Z,99343.28
2022-08-26T14:02:48.797Z,99348.72
2022-08-26T14:05:17.254Z,99355.00
2022-08-26T14:07:45.288Z,99345.75
2022-08-26T14:10:13.508Z,99338.69
2022-08-26T14:12:41.527Z,99337.88
2022-08-26T14:15:10.526Z,99346.00
2022-08-26T14:17:39.927Z,99350.38
2022-08-26T14:20:09.189Z,99340.56
2022-08-26T14:22:43.766Z,99344.13
2022-08-26T14:25:25.496Z,99337.06
2022-08-26T14:27:54.012Z,99338.69
2022-08-26T14:30:22.191Z,99338.69
2022-08-26T14:32:53.223Z,99337.06
2022-08-26T14:35:22.496Z,99333.53
2022-08-26T14:37:51.380Z,99333.78
2022-08-26T14:40:19.929Z,99337.34
2022-08-26T14:42:52.663Z,99329.19
2022-08-26T14:45:22.232Z,99328.34
2022-08-26T14:47:52.020Z,99329.19
2022-08-26T14:50:21.017Z,99330.81
2022-08-26T14:53:06.509Z,99330.00
2022-08-26T14:55:35.897Z,99321.03
2022-08-26T14:58:03.938Z,99323.75
2022-08-26T15:00:32.145Z,99320.19
2022-08-26T15:03:01.711Z,99320.75
2022-08-26T15:05:29.917Z,99318.03
2022-08-26T15:07:57.895Z,99320.75
2022-08-26T15:10:26.054Z,99325.38
2022-08-26T15:12:54.024Z,99314.50
2022-08-26T15:15:22.185Z,99311.00
2022-08-26T15:17:50.179Z,99303.91
2022-08-26T15:20:20.003Z,99308.28
2022-08-26T15:22:48.103Z,99309.09
2022-08-26T15:25:16.216Z,99310.19
2022-08-26T15:27:44.279Z,99306.63
2022-08-26T15:30:13.074Z,99309.09
2022-08-26T15:32:41.116Z,99296.59
2022-08-26T15:35:10.064Z,99293.03
2022-08-26T15:37:39.988Z,99302.84
2022-08-26T15:40:09.941Z,99291.97
2022-08-26T15:42:38.238Z,99291.97
2022-08-26T15:45:06.870Z,99290.88
2022-08-26T15:47:48.377Z,99295.25
2022-08-26T15:50:22.873Z,99290.63
2022-08-26T15:52:52.353Z,99287.63
2022-08-26T15:55:20.481Z,99292.25
2022-08-26T15:57:51.621Z,99298.50
2022-08-26T16:00:20.716Z,99295.78
2022-08-26T16:02:48.705Z,99284.91
2022-08-26T16:05:16.810Z,99289.28
2022-08-26T16:07:44.891Z,99290.09
2022-08-26T16:10:14.491Z,99290.91
2022-08-26T16:12:42.589Z,99282.19
2022-08-26T16:15:12.064Z,99278.41
2022-08-26T16:17:40.777Z,99287.63
2022-08-26T16:20:10.336Z,99280.56
2022-08-26T16:22:38.354Z,99291.44
2022-08-26T16:25:07.432Z,99290.34
2022-08-26T16:27:36.843Z,99287.38
2022-08-26T16:30:06.147Z,99287.63
2022-08-26T16:32:34.308Z,99293.06
2022-08-26T16:35:02.566Z,99293.06
2022-08-26T16:37:30.801Z,99298.50
2022-08-26T16:39:58.821Z,99293.06
2022-08-26T16:42:26.880Z,99289.28
2022-08-26T16:44:56.301Z,99293.63
2022-08-26T16:47:24.295Z,99296.31
2022-08-26T16:49:52.285Z,99300.16
2022-08-26T16:52:20.266Z,99303.38
2022-08-26T16:54:49.303Z,99304.22
2022-08-26T16:57:17.281Z,99314.00
2022-08-26T16:59:45.322Z,99311.53
2022-08-26T17:02:14.834Z,99303.38
2022-08-26T17:04:46.194Z,99301.50
2022-08-26T17:07:15.410Z,99298.78
2022-08-26T17:09:43.443Z,99298.78
2022-08-26T17:12:11.661Z,99300.66
2022-08-26T17:14:39.722Z,99297.94
2022-08-26T17:17:07.681Z,99302.56
2022-08-26T17:19:40.872Z,99313.44
2022-08-26T17:22:09.773Z,99312.63
2022-08-26T17:24:37.753Z,99311.00
2022-08-26T17:27:06.049Z,99316.44
2022-08-26T17:29:34.275Z,99312.63
2022-08-26T17:32:02.376Z,99319.16
2022-08-26T17:34:30.452Z,99314.78
2022-08-26T17:37:01.119Z,99312.06
2022-08-26T17:39:29.199Z,99317.25
2022-08-26T17:41:57.155Z,99320.22
2022-08-26T17:44:25.443Z,99316.44
2022-08-26T17:46:53.822Z,99323.50
2022-08-26T17:49:21.972Z,99318.06
2022-08-26T17:51:49.958Z,99322.41
2022-08-26T17:54:19.383Z,99321.88
2022-08-26T17:56:47.326Z,99318.06
2022-08-26T17:59:15.333Z,99321.59
2022-08-26T18:01:43.598Z,99327.00
2022-08-26T18:04:11.931Z,99326.22
2022-08-26T18:06:40.249Z,99328.94
2022-08-26T18:09:08.279Z,99329.72
2022-08-26T18:11:37.986Z,99331.63
2022-08-26T18:14:06.121Z,99328.94
2022-08-26T18:16:38.282Z,99330.00
2022-08-26T18:19:06.521Z,99339.78
2022-08-26T18:21:36.142Z,99339.78
2022-08-26T18:24:04.474Z,99336.50
2022-08-26T18:26:38.516Z,99336.50
2022-08-26T18:29:08.339Z,99334.91
2022-08-26T18:31:36.532Z,99337.59
2022-08-26T18:34:04.650Z,99343.03
2022-08-26T18:36:35.081Z,99334.09
2022-08-26T18:39:03.269Z,99340.31
2022-08-26T18:41:32.355Z,99340.31
2022-08-26T18:44:00.473Z,99339.50
2022-08-26T18:46:29.880Z,99348.47
2022-08-26T18:48:58.021Z,99351.19
2022-08-26T18:51:27.930Z,99355.81
2022-08-26T18:53:56.218Z,99354.47
2022-08-26T18:56:24.260Z,99351.75
2022-08-26T18:58:52.284Z,99349.03
2022-08-26T19:01:23.275Z,99359.91
2022-08-26T19:03:55.054Z,99347.94
2022-08-26T19:06:23.649Z,99352.56
2022-08-26T19:08:51.854Z,99351.75
2022-08-26T19:11:31.538Z,99353.38
2022-08-26T19:14:00.951Z,99356.09
2022-08-26T19:16:29.111Z,99355.28
2022-08-26T19:18:58.944Z,99350.66
2022-08-26T19:21:26.962Z,99357.19
2022-08-26T19:23:57.241Z,99352.81
2022-08-26T19:26:25.445Z,99350.09
2022-08-26T19:28:53.475Z,99356.63
2022-08-26T19:31:21.513Z,99353.09
2022-08-26T19:33:49.550Z,99362.06
2022-08-26T19:36:19.963Z,99363.16
2022-08-26T19:38:47.973Z,99362.06
2022-08-26T19:41:16.411Z,99365.88
2022-08-26T19:43:44.414Z,99360.44
2022-08-26T19:46:15.925Z,99356.06
2022-08-26T19:48:44.466Z,99352.53
2022-08-26T19:51:14.028Z,99355.00
2022-08-26T19:53:43.747Z,99360.44
2022-08-26T19:56:11.813Z,99356.63
2022-08-26T19:58:39.888Z,99362.06
2022-08-26T20:01:07.978Z,99365.56
2022-08-26T20:03:36.239Z,99369.38
2022-08-26T20:06:05.245Z,99362.88
2022-08-26T20:08:33.279Z,99370.75
2022-08-26T20:11:04.859Z,99371.81
2022-08-26T20:13:32.939Z,99374.53
2022-08-26T20:16:01.015Z,99369.09
2022-08-26T20:18:46.224Z,99372.91
2022-08-26T20:21:29.691Z,99373.72
2022-08-26T20:24:00.503Z,99369.38
2022-08-26T20:26:30.375Z,99370.19
2022-08-26T20:28:58.909Z,99375.88
2022-08-26T20:31:27.141Z,99363.97
2022-08-26T20:33:55.316Z,99366.94
2022-08-26T20:36:24.287Z,99364.22
2022-08-26T20:38:52.368Z,99360.69
2022-08-26T20:41:20.386Z,99362.59
2022-08-26T20:43:49.976Z,99373.44
2022-08-26T20:46:21.021Z,99371.81
2022-08-26T20:48:51.169Z,99370.75
2022-08-26T20:51:19.284Z,99372.63
2022-08-26T20:53:47.281Z,99377.22
2022-08-26T20:56:16.096Z,99380.50
2022-08-26T20:58:44.149Z,99377.78
2022-08-26T21:01:19.391Z,99375.06
2022-08-26T21:03:47.932Z,99371.56
2022-08-26T21:06:16.041Z,99375.06
2022-08-26T21:08:44.885Z,99375.06
2022-08-26T21:11:12.999Z,99376.72
2022-08-26T21:14:01.533Z,99379.44
2022-08-26T21:16:30.382Z,99380.50
2022-08-26T21:19:00.340Z,99376.72
2022-08-26T21:21:28.582Z,99382.16
2022-08-26T21:23:56.606Z,99379.44
2022-08-26T21:26:24.680Z,99378.88
2022-08-26T21:28:52.746Z,99375.06
2022-08-26T21:31:22.733Z,99373.44
2022-08-26T21:33:52.170Z,99376.16
2022-08-26T21:36:20.509Z,99382.41
2022-08-26T21:38:48.485Z,99393.53
2022-08-26T21:41:19.332Z,99390.81
2022-08-26T21:43:47.493Z,99393.53
2022-08-26T21:46:19.221Z,99395.44
2022-08-26T21:48:50.905Z,99391.91
2022-08-26T21:51:22.299Z,99391.09
2022-08-26T21:53:50.344Z,99391.09
2022-08-26T21:56:19.012Z,99391.09
2022-08-26T21:58:47.165Z,99394.63
2022-08-26T22:01:16.537Z,99394.38
2022-08-26T22:03:47.651Z,99394.63
2022-08-26T22:06:16.124Z,99392.72
2022-08-26T22:08:45.539Z,99396.25
2022-08-26T22:11:13.939Z,99398.97
2022-08-26T22:13:42.340Z,99393.53
2022-08-26T22:16:10.478Z,99388.09
2022-08-26T22:18:38.699Z,99382.66
2022-08-26T22:21:08.533Z,99378.06
2022-08-26T22:23:36.783Z,99387.28
2022-08-26T22:26:06.391Z,99383.75
2022-08-26T22:28:34.516Z,99388.38
2022-08-26T22:31:02.615Z,99387.56
2022-08-26T22:33:30.794Z,99391.09
2022-08-26T22:35:58.869Z,99388.63
2022-08-26T22:38:26.999Z,99387.56
2022-08-26T22:40:56.537Z,99384.84
2022-08-26T22:43:25.989Z,99385.09
2022-08-26T22:45:54.100Z,99385.09
2022-08-26T22:48:24.524Z,99376.16
2022-08-26T22:50:53.814Z,99387.00
2022-08-26T22:53:23.308Z,99378.88
2022-08-26T22:55:51.340Z,99382.38
2022-08-26T22:58:19.515Z,99381.56
2022-08-26T23:00:48.926Z,99384.28
2022-08-26T23:03:19.396Z,99383.19
2022-08-26T23:05:49.670Z,99377.75
2022-08-26T23:08:18.697Z,99380.47
2022-08-26T23:10:47.254Z,99373.16
2022-08-26T23:13:15.459Z,99381.56
2022-08-26T23:15:43.544Z,99383.19
2022-08-26T23:18:13.305Z,99373.44
2022-08-26T23:20:41.486Z,99377.75
2022-08-26T23:23:09.478Z,99373.16
2022-08-26T23:25:37.512Z,99360.66
2022-08-26T23:28:05.591Z,99373.44
2022-08-26T23:30:34.492Z,99370.72
2022-08-26T23:33:02.500Z,99368.25
2022-08-26T23:35:30.952Z,99368.25
2022-08-26T23:38:00.018Z,99362.81
2022-08-26T23:40:31.996Z,99363.09
2022-08-26T23:43:00.811Z,99366.63
2022-08-26T23:45:28.921Z,99362.25
2022-08-26T23:47:56.971Z,99358.75
2022-08-26T23:50:47.066Z,99364.16
2022-08-26T23:53:19.505Z,99369.59
2022-08-26T23:55:48.772Z,99372.59
2022-08-26T23:58:16.929Z,99378.84
